Time;durP1;ratioP1;P1;durP2;ratioP2;P2;SDS_P1;SDS_P2;PMS_P1;PMS_P2;Temp;Humidity;BMP_temperature;BMP_pressure;BME280_temperature;BME280_humidity;BME280_pressure;Samples;Min_cycle;Max_cycle;Signal;HPM_P1;HPM_P2
2022/08/26 00:00:52;;;;;;;15.55;4.92;;;;;;;16.29;74.23;100549.98;1778434;80;21477;-40
2022/08/26 00:03:21;;;;;;;26.33;5.40;;;;;;;16.35;74.40;100551.06;1764355;80;21036;-40
2022/08/26 00:05:49;;;;;;;12.60;5.15;;;;;;;16.37;74.66;100549.23;1747049;81;21008;-40
2022/08/26 00:08:16;;;;;;;10.03;4.53;;;;;;;16.38;72.12;100544.84;1766362;80;20972;-41
2022/08/26 00:10:44;;;;;;;18.12;5.33;;;;;;;16.51;70.05;100542.13;1768018;80;21513;-40
2022/08/26 00:13:10;;;;;;;16.00;4.97;;;;;;;16.64;69.04;100542.45;1756259;80;20889;-40
2022/08/26 00:15:39;;;;;;;14.68;4.62;;;;;;;16.74;68.74;100539.44;1765933;80;21384;-40
2022/08/26 00:18:06;;;;;;;22.27;5.00;;;;;;;16.80;67.38;100541.81;1763081;80;20981;-40
2022/08/26 00:20:34;;;;;;;13.55;4.67;;;;;;;16.83;66.40;100550.82;1762166;80;21007;-41
2022/08/26 00:23:02;;;;;;;15.43;4.62;;;;;;;16.89;65.31;100542.70;1770660;80;21422;-40
2022/08/26 00:25:30;;;;;;;24.90;5.22;;;;;;;16.99;64.17;100555.40;1780492;80;20932;-40
2022/08/26 00:27:56;;;;;;;21.62;4.50;;;;;;;17.05;62.17;100549.45;1757898;80;21920;-40
2022/08/26 00:30:26;;;;;;;25.30;5.17;;;;;;;17.22;60.92;100543.94;1777578;80;20964;-41
2022/08/26 00:32:53;;;;;;;17.25;4.70;;;;;;;17.36;61.20;100556.39;1767852;80;21498;-41
2022/08/26 00:35:20;;;;;;;23.83;4.87;;;;;;;17.39;61.07;100554.94;1772668;80;20869;-41
2022/08/26 00:37:47;;;;;;;24.67;5.60;;;;;;;17.38;60.02;100554.55;1783252;80;20928;-40
2022/08/26 00:40:19;;;;;;;28.70;5.08;;;;;;;17.42;59.13;100557.41;1781952;80;21496;-41
2022/08/26 00:42:46;;;;;;;21.62;5.15;;;;;;;17.50;57.11;100557.06;1761391;80;21012;-41
2022/08/26 00:45:13;;;;;;;23.00;4.67;;;;;;;17.58;56.41;100560.17;1750154;81;21544;-40
2022/08/26 00:47:51;;;;;;;11.30;4.40;;;;;;;17.70;54.13;100558.75;1751102;80;20940;-40
2022/08/26 00:50:23;;;;;;;18.00;5.25;;;;;;;17.88;53.70;100553.58;1781566;80;20873;-41
2022/08/26 00:52:51;;;;;;;25.12;4.80;;;;;;;18.00;53.78;100550.84;1755115;80;21253;-41
2022/08/26 00:55:32;;;;;;;31.80;5.20;;;;;;;18.00;54.18;100552.98;1760265;80;21027;-41
2022/08/26 00:57:59;;;;;;;21.25;5.20;;;;;;;17.99;53.82;100555.20;1782738;80;20959;-40
2022/08/26 01:00:29;;;;;;;16.17;5.12;;;;;;;18.00;53.68;100552.14;1767293;80;20948;-41
2022/08/26 01:02:56;;;;;;;22.52;5.37;;;;;;;17.98;53.59;100557.44;1768189;80;20979;-41
2022/08/26 01:05:24;;;;;;;26.80;5.25;;;;;;;17.95;53.86;100559.77;1752671;80;22058;-40
2022/08/26 01:07:51;;;;;;;25.65;5.15;;;;;;;17.94;53.33;100559.37;1722644;82;21011;-41
2022/08/26 01:10:22;;;;;;;27.65;5.62;;;;;;;17.93;53.93;100555.03;1766200;80;20932;-40
2022/08/26 01:12:55;;;;;;;24.02;5.40;;;;;;;17.88;53.82;100557.03;1763621;80;20971;-41
2022/08/26 01:15:31;;;;;;;18.57;4.60;;;;;;;17.80;54.50;100559.17;1782610;80;20967;-41
2022/08/26 01:17:58;;;;;;;32.05;5.20;;;;;;;17.71;55.08;100557.00;1695679;83;21271;-40
2022/08/26 01:20:31;;;;;;;23.18;4.33;;;;;;;17.63;55.15;100553.42;1763544;80;20900;-40
2022/08/26 01:23:07;;;;;;;24.05;5.17;;;;;;;17.59;55.46;100551.40;1752622;80;20936;-41
2022/08/26 01:25:43;;;;;;;24.63;4.70;;;;;;;17.55;54.45;100549.84;1753243;80;20932;-40
2022/08/26 01:28:22;;;;;;;16.48;5.05;;;;;;;17.53;55.03;100549.91;1770104;80;20976;-40
2022/08/26 01:30:51;;;;;;;15.75;4.72;;;;;;;17.50;54.74;100553.14;1758835;80;21084;-41
2022/08/26 01:33:22;;;;;;;15.88;4.58;;;;;;;17.52;53.32;100549.52;1762560;80;20877;-40
2022/08/26 01:35:50;;;;;;;19.02;4.97;;;;;;;17.58;53.40;100554.10;1777137;80;20940;-40
2022/08/26 01:38:17;;;;;;;21.85;5.10;;;;;;;17.59;53.93;100549.26;1773866;80;21040;-40
2022/08/26 01:40:44;;;;;;;21.20;5.45;;;;;;;17.55;54.79;100542.44;1765541;80;20944;-40
2022/08/26 01:43:16;;;;;;;23.30;5.20;;;;;;;17.52;55.93;100553.44;1773370;80;21236;-40
2022/08/26 01:45:44;;;;;;;21.07;4.65;;;;;;;17.45;56.86;100550.73;1763610;80;20886;-40
2022/08/26 01:48:18;;;;;;;24.90;5.10;;;;;;;17.38;57.67;100550.62;1740134;81;20952;-41
2022/08/26 01:50:45;;;;;;;18.77;5.12;;;;;;;17.31;58.13;100554.45;1774229;80;20956;-41
2022/08/26 01:53:16;;;;;;;19.05;4.60;;;;;;;17.23;58.22;100550.39;1780461;80;20983;-40
2022/08/26 01:55:46;;;;;;;22.58;4.85;;;;;;;17.20;58.61;100551.00;1746263;81;21091;-40
2022/08/26 01:58:19;;;;;;;21.73;4.70;;;;;;;17.16;58.94;100546.36;1675403;84;21491;-40
2022/08/26 02:00:46;;;;;;;22.60;4.58;;;;;;;17.08;59.26;100551.09;1675515;85;20949;-40
2022/08/26 02:03:15;;;;;;;15.18;5.00;;;;;;;17.01;59.34;100550.95;1774495;80;20928;-40
2022/08/26 02:05:47;;;;;;;25.80;5.92;;;;;;;16.99;59.21;100551.47;1775000;80;21477;-41
2022/08/26 02:08:14;;;;;;;19.50;4.78;;;;;;;16.97;59.47;100548.05;1771293;80;21232;-41
2022/08/26 02:10:42;;;;;;;16.73;4.12;;;;;;;16.92;59.67;100549.55;1763196;80;21000;-40
2022/08/26 02:13:09;;;;;;;17.73;4.20;;;;;;;16.85;59.33;100543.77;1745292;81;20914;-40
2022/08/26 02:15:36;;;;;;;24.75;5.03;;;;;;;16.84;58.96;100539.89;1759793;81;21032;-40
2022/08/26 02:18:04;;;;;;;25.62;5.75;;;;;;;16.82;58.88;100539.98;1768582;80;20939;-40
2022/08/26 02:20:31;;;;;;;19.45;5.17;;;;;;;16.82;58.51;100532.13;1752914;80;21104;-40
2022/08/26 02:22:58;;;;;;;26.00;4.55;;;;;;;16.84;58.42;100532.91;1770330;80;20913;-40
2022/08/26 02:25:32;;;;;;;23.80;5.62;;;;;;;16.88;58.10;100534.92;1780489;80;20968;-40
2022/08/26 02:27:59;;;;;;;15.70;4.92;;;;;;;16.89;57.67;100528.33;1767780;80;20882;-40
2022/08/26 02:30:30;;;;;;;15.70;4.97;;;;;;;16.95;57.62;100533.75;1738624;80;21323;-41
2022/08/26 02:33:03;;;;;;;17.82;4.70;;;;;;;16.98;57.59;100534.06;1736137;81;21130;-40
2022/08/26 02:35:32;;;;;;;24.87;4.40;;;;;;;16.96;57.26;100535.45;1744661;82;20860;-40
2022/08/26 02:37:59;;;;;;;33.65;5.47;;;;;;;16.95;57.29;100533.28;1755110;81;21479;-40
2022/08/26 02:40:32;;;;;;;25.55;5.00;;;;;;;16.96;57.28;100532.84;1771920;81;20960;-40
2022/08/26 02:42:59;;;;;;;17.67;4.87;;;;;;;16.92;57.29;100532.55;1764757;81;20928;-40
2022/08/26 02:45:27;;;;;;;21.35;4.87;;;;;;;16.89;59.70;100543.15;1746676;81;21266;-41
2022/08/26 02:47:55;;;;;;;19.95;4.75;;;;;;;16.78;61.84;100541.00;1749410;81;20897;-41
2022/08/26 02:50:24;;;;;;;15.78;4.33;;;;;;;16.65;63.65;100549.37;1767314;81;20991;-40
2022/08/26 02:52:51;;;;;;;30.05;5.33;;;;;;;16.51;62.68;100554.32;1745768;81;21007;-40
2022/08/26 02:55:18;;;;;;;15.80;4.75;;;;;;;16.37;62.47;100547.92;1772976;81;20936;-41
2022/08/26 02:57:45;;;;;;;23.77;5.65;;;;;;;16.27;63.51;100557.03;1773079;81;21101;-42
2022/08/26 03:00:14;;;;;;;23.10;6.00;;;;;;;16.19;62.68;100557.81;1761839;81;21494;-41
2022/08/26 03:02:41;;;;;;;24.43;4.92;;;;;;;16.14;62.85;100556.67;1771177;81;20939;-40
2022/08/26 03:05:09;;;;;;;23.62;4.67;;;;;;;16.13;62.74;100562.81;1746641;81;20979;-40
2022/08/26 03:07:36;;;;;;;18.73;5.70;;;;;;;16.15;61.95;100561.45;1745053;82;21050;-40
2022/08/26 03:10:05;;;;;;;20.60;5.17;;;;;;;16.17;62.24;100557.02;1754530;81;21218;-40
2022/08/26 03:12:32;;;;;;;22.00;5.47;;;;;;;16.18;61.30;100558.28;1745374;81;20881;-40
2022/08/26 03:14:58;;;;;;;20.20;5.28;;;;;;;16.21;61.10;100558.59;1749291;81;20944;-40
2022/08/26 03:17:25;;;;;;;26.77;5.05;;;;;;;16.25;61.48;100559.33;1744687;82;20936;-40
2022/08/26 03:19:52;;;;;;;17.30;5.45;;;;;;;16.26;61.58;100564.95;1764914;81;21483;-41
2022/08/26 03:22:19;;;;;;;20.88;5.15;;;;;;;16.25;62.33;100565.86;1772687;81;21232;-41
2022/08/26 03:24:46;;;;;;;14.55;4.53;;;;;;;16.23;63.54;100569.38;1742342;82;20945;-40
2022/08/26 03:27:13;;;;;;;14.98;4.50;;;;;;;16.20;64.31;100565.59;1747549;81;20972;-40
2022/08/26 03:32:26;;;;;;;23.62;4.92;;;;;;;16.18;64.11;100574.39;1771059;80;21525;-40
2022/08/26 03:34:53;;;;;;;25.55;5.58;;;;;;;16.16;64.58;100567.07;1783248;80;21135;-40
2022/08/26 03:37:20;;;;;;;22.13;4.80;;;;;;;16.12;65.37;100568.11;1783048;80;21505;-41
2022/08/26 03:39:47;;;;;;;28.90;5.60;;;;;;;16.11;66.82;100568.55;1770234;80;20911;-40
2022/08/26 03:42:14;;;;;;;24.25;5.50;;;;;;;16.09;67.97;100567.33;1751878;80;20983;-41
2022/08/26 03:44:42;;;;;;;23.22;5.78;;;;;;;16.10;69.22;100578.60;1766110;80;21537;-40
2022/08/26 03:47:09;;;;;;;21.48;5.22;;;;;;;16.11;71.52;100577.69;1753498;80;21237;-40
2022/08/26 03:49:36;;;;;;;25.62;4.75;;;;;;;16.13;73.29;100578.48;1771670;80;21478;-40
2022/08/26 03:52:03;;;;;;;14.00;4.60;;;;;;;16.16;74.59;100578.83;1773276;80;20916;-40
2022/08/26 03:54:30;;;;;;;24.02;4.90;;;;;;;16.21;77.27;100581.66;1734925;80;21517;-40
2022/08/26 03:56:57;;;;;;;17.27;4.65;;;;;;;16.27;77.50;100579.23;1783214;80;20991;-40
2022/08/26 03:59:25;;;;;;;18.82;5.00;;;;;;;16.33;76.38;100582.06;1773228;80;21200;-40
2022/08/26 04:01:52;;;;;;;27.07;5.10;;;;;;;16.42;76.74;100584.75;1770174;81;20956;-40
2022/08/26 04:04:19;;;;;;;25.57;4.60;;;;;;;16.52;76.84;100571.25;1742550;80;20908;-41
2022/08/26 04:06:47;;;;;;;24.85;5.20;;;;;;;16.63;78.52;100577.34;1749082;80;21470;-40
2022/08/26 04:09:18;;;;;;;21.20;5.15;;;;;;;16.75;72.45;100569.44;1750617;82;21449;-41
2022/08/26 04:11:45;;;;;;;17.48;5.78;;;;;;;17.05;65.94;100557.73;1721917;82;21854;-41
2022/08/26 04:14:16;;;;;;;11.70;4.75;;;;;;;17.44;62.45;100562.11;1779437;80;20980;-41
2022/08/26 04:16:43;;;;;;;21.05;4.55;;;;;;;17.87;57.42;100561.88;1707381;83;20944;-40
2022/08/26 04:19:12;;;;;;;29.10;5.53;;;;;;;18.31;55.56;100558.05;1696159;84;20936;-41
2022/08/26 04:21:40;;;;;;;31.68;5.20;;;;;;;18.69;54.78;100554.92;1696232;84;20916;-41
2022/08/26 04:24:08;;;;;;;25.52;5.65;;;;;;;18.98;53.75;100555.19;1697541;83;21220;-40
2022/08/26 04:26:36;;;;;;;32.90;5.60;;;;;;;19.21;54.21;100549.60;1780477;80;20849;-41
2022/08/26 04:29:08;;;;;;;40.50;5.30;;;;;;;19.42;51.11;100552.02;1783087;80;20932;-41
2022/08/26 04:31:35;;;;;;;24.15;5.03;;;;;;;19.64;49.93;100552.98;1764680;80;21015;-41
2022/08/26 04:34:04;;;;;;;22.00;5.50;;;;;;;19.86;50.46;100556.22;1761777;80;20897;-40
2022/08/26 04:36:30;;;;;;;18.95;5.42;;;;;;;19.98;48.13;100558.17;1780641;80;21113;-41
2022/08/26 04:38:59;;;;;;;17.90;5.20;;;;;;;20.16;48.81;100564.64;1783195;80;20936;-41
2022/08/26 04:41:26;;;;;;;21.85;5.10;;;;;;;20.23;47.27;100558.95;1783303;80;21485;-41
2022/08/26 04:43:55;;;;;;;22.42;5.22;;;;;;;20.34;47.06;100564.04;1769974;80;20964;-41
2022/08/26 04:46:23;;;;;;;24.85;5.47;;;;;;;20.44;47.06;100564.36;1779260;80;20999;-41
2022/08/26 04:48:51;;;;;;;25.48;4.95;;;;;;;20.52;46.50;100570.00;1782896;80;22322;-41
2022/08/26 04:51:19;;;;;;;44.23;6.53;;;;;;;20.65;46.72;100570.13;1783322;80;20893;-41
2022/08/26 04:53:46;;;;;;;24.85;5.22;;;;;;;20.77;46.47;100570.73;1771500;80;20881;-41
2022/08/26 05:07:27;;;;;;;20.88;5.20;;;;;;;21.71;43.90;100590.98;1742318;82;22834;-39
2022/08/26 05:09:54;;;;;;;23.57;5.10;;;;;;;21.76;43.04;100590.20;1728842;82;21524;-40
2022/08/26 05:12:22;;;;;;;22.60;5.20;;;;;;;21.77;43.69;100583.99;1757233;81;21251;-40
2022/08/26 05:14:49;;;;;;;31.48;5.40;;;;;;;21.77;42.30;100570.82;1756845;81;20989;-40
2022/08/26 05:17:15;;;;;;;15.75;4.60;;;;;;;21.76;42.28;100575.72;1757045;81;20903;-40
2022/08/26 05:19:42;;;;;;;24.30;5.67;;;;;;;21.75;42.04;100581.93;1757320;80;20895;-40
2022/08/26 05:22:09;;;;;;;22.17;4.78;;;;;;;21.73;42.33;100582.50;1756921;81;21001;-40
2022/08/26 05:24:36;;;;;;;22.22;4.92;;;;;;;21.73;42.79;100581.19;1753984;81;21208;-40
2022/08/26 05:27:04;;;;;;;16.90;5.05;;;;;;;21.73;42.67;100581.19;1756389;81;20930;-40
2022/08/26 05:29:32;;;;;;;25.40;5.00;;;;;;;21.71;42.44;100580.44;1756986;80;20927;-40
2022/08/26 05:31:59;;;;;;;28.12;5.47;;;;;;;21.72;42.58;100588.72;1757117;81;20966;-40
2022/08/26 05:34:26;;;;;;;25.35;5.47;;;;;;;21.72;42.56;100581.27;1731670;81;20918;-40
2022/08/26 05:36:53;;;;;;;17.95;4.67;;;;;;;21.71;41.93;100584.39;1757053;81;21583;-40
2022/08/26 05:39:22;;;;;;;29.45;5.25;;;;;;;21.71;42.63;100580.44;1755458;81;20920;-40
2022/08/26 05:41:49;;;;;;;25.02;6.55;;;;;;;21.71;42.49;100579.13;1755325;81;21002;-41
2022/08/26 05:44:17;;;;;;;30.60;5.37;;;;;;;21.72;42.17;100582.59;1754907;81;21492;-41
2022/08/26 05:46:45;;;;;;;26.12;6.30;;;;;;;21.70;42.71;100578.75;1757036;81;20934;-41
2022/08/26 05:49:13;;;;;;;30.12;6.40;;;;;;;21.70;42.80;100580.06;1756988;81;21893;-40
2022/08/26 05:51:45;;;;;;;26.75;5.90;;;;;;;21.67;43.00;100573.19;1757131;81;21686;-40
2022/08/26 05:54:13;;;;;;;25.97;6.10;;;;;;;21.67;42.92;100575.00;1756897;81;21480;-41
2022/08/26 05:56:40;;;;;;;16.48;4.58;;;;;;;21.66;43.26;100575.94;1770825;80;21011;-41
2022/08/26 05:59:10;;;;;;;23.00;4.97;;;;;;;21.67;43.12;100575.00;1775686;80;20873;-41
2022/08/26 06:01:38;;;;;;;31.25;6.47;;;;;;;21.71;43.37;100580.44;1749617;80;21226;-41
2022/08/26 06:04:06;;;;;;;16.37;5.08;;;;;;;21.76;43.14;100583.62;1746921;80;20889;-41
2022/08/26 06:06:35;;;;;;;31.25;6.25;;;;;;;21.84;44.54;100588.86;1744515;82;21011;-41
2022/08/26 06:09:04;;;;;;;21.57;5.62;;;;;;;21.92;43.90;100581.33;1744160;81;21495;-41
2022/08/26 06:11:32;;;;;;;23.62;6.17;;;;;;;22.04;43.95;100581.84;1744561;82;20980;-41
2022/08/26 06:14:03;;;;;;;21.57;5.87;;;;;;;22.23;43.63;100573.59;1759068;80;21213;-41
2022/08/26 06:16:32;;;;;;;35.50;6.85;;;;;;;22.52;43.95;100576.58;1772531;80;21002;-41
2022/08/26 06:18:59;;;;;;;30.20;6.42;;;;;;;22.85;43.10;100563.35;1764246;80;20948;-41
2022/08/26 06:21:32;;;;;;;27.87;5.97;;;;;;;23.28;41.35;100556.94;1757015;80;21580;-41
2022/08/26 06:26:53;;;;;;;28.47;4.87;;;;;;;24.21;38.88;100562.15;1751662;80;21134;-41
2022/08/26 06:29:22;;;;;;;21.95;4.90;;;;;;;24.60;38.12;100563.72;1771095;80;20944;-41
2022/08/26 06:31:50;;;;;;;18.62;3.42;;;;;;;24.84;39.03;100566.80;1773027;80;21698;-41
2022/08/26 06:34:17;;;;;;;12.60;3.27;;;;;;;24.96;35.49;100568.48;1774946;80;20995;-41
2022/08/26 06:36:46;;;;;;;17.80;3.55;;;;;;;24.97;36.87;100564.87;1743666;80;20989;-41
2022/08/26 06:39:15;;;;;;;17.90;4.00;;;;;;;24.92;35.99;100574.52;1733661;80;21139;-41
2022/08/26 06:41:43;;;;;;;13.93;4.08;;;;;;;24.90;35.33;100575.11;1761428;80;20936;-42
2022/08/26 06:44:13;;;;;;;16.62;3.98;;;;;;;24.87;36.41;100568.70;1761503;80;20952;-42
2022/08/26 06:46:40;;;;;;;18.48;3.83;;;;;;;24.82;35.17;100574.38;1759638;80;21011;-42
2022/08/26 06:49:08;;;;;;;24.32;4.60;;;;;;;24.78;34.75;100569.42;1774318;80;21014;-42
2022/08/26 06:51:37;;;;;;;21.60;3.55;;;;;;;24.68;33.76;100569.26;1767936;80;21052;-42
2022/08/26 06:54:05;;;;;;;17.17;3.95;;;;;;;24.58;35.20;100563.82;1759201;80;21509;-41
2022/08/26 06:56:41;;;;;;;19.23;4.22;;;;;;;24.50;35.65;100571.51;1775082;80;20932;-41
2022/08/26 06:59:10;;;;;;;19.48;3.95;;;;;;;24.42;35.19;100566.79;1774901;80;21300;-42
2022/08/26 07:01:39;;;;;;;12.15;3.62;;;;;;;24.33;36.26;100565.67;1772888;80;20956;-42
2022/08/26 07:04:06;;;;;;;17.00;4.20;;;;;;;24.29;35.07;100561.58;1774604;79;21180;-42
2022/08/26 07:06:39;;;;;;;18.77;4.10;;;;;;;24.24;35.21;100572.98;1771217;80;21051;-42
2022/08/26 07:09:07;;;;;;;20.68;4.28;;;;;;;24.22;34.08;100567.80;1771810;81;20932;-42
2022/08/26 07:11:37;;;;;;;15.32;3.90;;;;;;;24.21;35.74;100575.37;1767834;80;20932;-41
2022/08/26 07:14:05;;;;;;;12.63;4.35;;;;;;;24.21;36.43;100576.69;1770126;80;20956;-41
2022/08/26 07:16:32;;;;;;;24.00;4.35;;;;;;;24.24;35.37;100584.89;1730459;81;21142;-42
2022/08/26 07:18:59;;;;;;;20.12;4.55;;;;;;;24.25;36.19;100582.14;1720981;83;21540;-41
2022/08/26 07:21:26;;;;;;;15.53;4.42;;;;;;;24.33;35.78;100586.84;1714260;83;20895;-42
2022/08/26 07:23:53;;;;;;;18.50;3.90;;;;;;;24.38;36.73;100591.33;1735975;82;20942;-41
2022/08/26 07:26:23;;;;;;;15.70;4.10;;;;;;;24.41;35.68;100584.12;1712077;82;20932;-41
2022/08/26 07:28:51;;;;;;;14.65;4.20;;;;;;;24.46;36.63;100584.11;1715921;83;21928;-42
2022/08/26 07:31:20;;;;;;;22.22;4.25;;;;;;;24.56;37.01;100582.11;1756685;80;20946;-42
2022/08/26 07:33:47;;;;;;;14.58;3.90;;;;;;;24.66;36.95;100579.97;1763935;80;20956;-42
2022/08/26 07:36:15;;;;;;;27.32;3.85;;;;;;;24.74;35.79;100578.54;1744830;81;21449;-42
2022/08/26 07:38:43;;;;;;;12.63;3.90;;;;;;;24.81;34.80;100581.09;1751887;81;21026;-42
2022/08/26 07:41:12;;;;;;;23.45;4.65;;;;;;;24.96;34.40;100571.98;1760055;81;22272;-41
2022/08/26 07:43:39;;;;;;;13.95;3.87;;;;;;;25.14;34.98;100569.34;1765946;81;20987;-42
2022/08/26 07:46:06;;;;;;;14.93;3.92;;;;;;;25.28;33.99;100572.22;1745532;80;20928;-41
2022/08/26 07:48:34;;;;;;;7.03;3.72;;;;;;;25.41;34.44;100572.95;1743853;81;20976;-41
2022/08/26 07:51:01;;;;;;;19.50;4.15;;;;;;;25.61;34.52;100562.56;1741931;81;20908;-41
2022/08/26 07:53:28;;;;;;;27.55;3.90;;;;;;;25.81;34.60;100567.09;1750923;81;21281;-42
2022/08/26 07:55:57;;;;;;;26.05;4.00;;;;;;;26.05;35.14;100566.05;1749527;81;20979;-42
2022/08/26 07:58:24;;;;;;;15.38;4.00;;;;;;;26.36;33.96;100560.87;1760035;81;20974;-42
2022/08/26 08:00:51;;;;;;;14.93;3.60;;;;;;;26.63;33.71;100549.39;1741854;81;20919;-42
2022/08/26 08:03:19;;;;;;;13.75;3.15;;;;;;;26.92;32.57;100541.61;1741626;82;20911;-42
2022/08/26 08:05:46;;;;;;;17.45;3.90;;;;;;;27.23;31.50;100546.04;1760386;81;21241;-42
2022/08/26 08:08:13;;;;;;;23.05;3.92;;;;;;;27.36;32.85;100547.12;1748197;80;20955;-42
2022/08/26 08:10:40;;;;;;;21.40;3.92;;;;;;;27.42;32.05;100541.29;1744214;82;20940;-42
2022/08/26 08:13:08;;;;;;;11.78;3.72;;;;;;;27.54;32.64;100533.56;1744371;81;20991;-42
2022/08/26 08:15:36;;;;;;;17.37;3.77;;;;;;;27.72;31.32;100527.58;1744213;82;21046;-42
2022/08/26 08:18:03;;;;;;;14.50;3.65;;;;;;;27.88;30.16;100521.70;1746781;80;21108;-42
2022/08/26 08:20:30;;;;;;;17.27;2.90;;;;;;;28.11;29.87;100522.75;1744077;80;21520;-42
2022/08/26 08:22:57;;;;;;;15.48;2.75;;;;;;;28.37;29.16;100523.00;1744044;82;20893;-42
2022/08/26 08:25:24;;;;;;;10.25;2.33;;;;;;;28.52;28.16;100515.91;1747378;80;20859;-42
2022/08/26 08:27:51;;;;;;;15.53;2.60;;;;;;;28.62;28.84;100518.03;1750673;79;21164;-42
2022/08/26 08:30:20;;;;;;;10.82;2.55;;;;;;;28.78;27.59;100516.08;1770217;80;21124;-42
2022/08/26 08:32:47;;;;;;;14.55;2.92;;;;;;;28.96;26.23;100505.55;1774556;80;20908;-42
2022/08/26 08:35:16;;;;;;;13.98;2.83;;;;;;;29.08;27.92;100506.19;1772247;80;20873;-42
2022/08/26 08:37:43;;;;;;;10.90;2.75;;;;;;;29.17;26.48;100510.27;1762191;80;20944;-42
2022/08/26 08:40:14;;;;;;;14.20;2.70;;;;;;;29.33;28.25;100512.28;1726134;81;20952;-42
2022/08/26 08:42:52;;;;;;;10.05;2.50;;;;;;;29.48;26.31;100500.63;1720962;81;21846;-42
2022/08/26 08:45:30;;;;;;;16.57;2.12;;;;;;;29.57;26.52;100510.89;1756154;80;21455;-42
2022/08/26 08:48:00;;;;;;;11.73;2.30;;;;;;;29.57;25.17;100508.22;1725117;83;20954;-42
2022/08/26 08:50:34;;;;;;;16.25;2.55;;;;;;;29.47;24.66;100511.81;1756157;81;21538;-41
2022/08/26 08:53:23;;;;;;;16.93;2.45;;;;;;;29.39;24.62;100498.34;1729447;81;21021;-42
2022/08/26 08:56:01;;;;;;;20.23;3.33;;;;;;;29.34;24.87;100497.48;1715282;83;21254;-42
2022/08/26 08:59:03;;;;;;;16.00;2.30;;;;;;;29.33;24.59;100495.80;1729157;82;21036;-42
2022/08/26 09:01:57;;;;;;;14.53;2.37;;;;;;;29.25;23.72;100495.22;1703807;82;21038;-41
2022/08/26 09:04:42;;;;;;;16.65;2.58;;;;;;;29.10;24.10;100494.89;1744615;80;21010;-41
2022/08/26 09:07:16;;;;;;;14.80;2.10;;;;;;;29.10;26.02;100494.89;1736541;80;20983;-41
2022/08/26 09:09:48;;;;;;;23.57;2.67;;;;;;;29.26;25.30;100498.70;1735690;81;21031;-41
2022/08/26 09:12:23;;;;;;;23.85;3.00;;;;;;;29.41;24.63;100500.39;1740102;81;21011;-41
2022/08/26 09:14:50;;;;;;;;;;;;;;;29.45;23.36;100495.13;1742915;81;20984;-41
2022/08/26 09:17:50;;;;;;;14.23;2.25;;;;;;;29.56;26.51;100499.41;1732419;81;20080;-41
2022/08/26 09:20:32;;;;;;;15.48;2.62;;;;;;;29.74;25.00;100495.39;1710892;81;20984;-42
2022/08/26 09:23:00;;;;;;;12.33;2.20;;;;;;;29.69;22.86;100492.36;1731676;82;21125;-42
2022/08/26 09:25:27;;;;;;;9.90;2.20;;;;;;;29.46;24.02;100491.95;1741715;81;20905;-42
2022/08/26 09:27:54;;;;;;;16.97;2.30;;;;;;;29.30;23.87;100496.59;1739256;81;20961;-41
2022/08/26 09:30:26;;;;;;;16.32;2.20;;;;;;;29.24;23.92;100482.89;1720055;81;20929;-42
2022/08/26 09:33:03;;;;;;;6.42;2.12;;;;;;;29.29;25.93;100506.91;1737249;82;20984;-42
2022/08/26 09:35:34;;;;;;;17.62;2.98;;;;;;;29.31;24.06;100483.61;1719989;81;21973;-42
2022/08/26 09:38:01;;;;;;;34.45;3.15;;;;;;;29.33;25.83;100486.95;1712573;82;20948;-42
2022/08/26 09:40:35;;;;;;;14.65;3.35;;;;;;;29.41;26.45;100479.06;1720335;82;20973;-42
2022/08/26 09:43:18;;;;;;;18.27;2.87;;;;;;;29.48;25.63;100462.83;1754689;81;20983;-42
2022/08/26 09:45:53;;;;;;;12.18;2.70;;;;;;;29.56;25.05;100475.41;1739573;82;21466;-42
2022/08/26 09:48:29;;;;;;;24.72;6.17;;;;;;;29.62;24.52;100474.79;1734143;81;21533;-42
2022/08/26 09:50:59;;;;;;;22.70;3.33;;;;;;;29.73;22.22;100466.20;1718266;81;20937;-42
2022/08/26 09:53:30;;;;;;;31.97;2.40;;;;;;;29.87;22.12;100466.14;1711965;82;20945;-41
2022/08/26 09:56:24;;;;;;;21.97;3.10;;;;;;;29.92;20.66;100473.18;1738965;82;20889;-43
2022/08/26 09:58:51;;;;;;;21.15;2.98;;;;;;;29.88;22.02;100470.48;1740818;82;20928;-42
2022/08/26 10:01:37;;;;;;;27.42;2.72;;;;;;;30.01;23.19;100467.41;1734676;82;21051;-42
2022/08/26 10:04:09;;;;;;;32.28;2.42;;;;;;;30.29;22.84;100465.96;1722564;82;20921;-42
2022/08/26 10:06:40;;;;;;;23.30;2.70;;;;;;;30.53;24.50;100463.94;1728126;82;21023;-43
2022/08/26 10:09:07;;;;;;;25.02;3.77;;;;;;;30.72;22.88;100459.39;1734572;82;20964;-43
2022/08/26 10:11:46;;;;;;;27.22;3.62;;;;;;;30.78;22.60;100458.23;1726651;81;20900;-42
2022/08/26 10:14:30;;;;;;;28.40;4.30;;;;;;;30.68;22.46;100467.70;1726396;82;21194;-42
2022/08/26 10:17:07;;;;;;;32.08;4.20;;;;;;;30.61;23.50;100464.52;1738220;81;20991;-41
2022/08/26 10:19:51;;;;;;;26.70;4.10;;;;;;;30.52;21.37;100460.94;1721999;82;20968;-42
2022/08/26 10:22:36;;;;;;;37.15;3.30;;;;;;;30.43;22.71;100466.72;1733986;82;21572;-43
2022/08/26 10:25:07;;;;;;;26.52;3.50;;;;;;;30.18;21.82;100465.72;1722101;82;21220;-43
2022/08/26 10:27:48;;;;;;;36.70;4.05;;;;;;;29.86;23.43;100465.33;1715034;82;21083;-42
2022/08/26 10:30:18;;;;;;;37.23;3.83;;;;;;;29.66;24.29;100465.97;1734052;82;20928;-41
2022/08/26 10:32:53;;;;;;;24.75;2.72;;;;;;;29.49;24.43;100465.84;1737540;81;21339;-42
2022/08/26 10:35:20;;;;;;;30.82;3.90;;;;;;;29.32;24.76;100464.81;1714296;82;21546;-42
2022/08/26 10:37:53;;;;;;;21.35;3.40;;;;;;;29.25;24.47;100453.06;1717498;82;20888;-42
2022/08/26 10:40:47;;;;;;;27.00;2.83;;;;;;;29.13;25.37;100459.09;1734777;81;21166;-41
2022/08/26 10:43:30;;;;;;;19.27;2.90;;;;;;;28.98;23.52;100457.95;1700745;82;21035;-42
2022/08/26 10:46:02;;;;;;;33.63;3.98;;;;;;;28.88;23.12;100456.16;1726613;82;21540;-42
2022/08/26 10:48:52;;;;;;;23.02;2.75;;;;;;;28.78;24.16;100460.67;1737502;82;21056;-43
2022/08/26 10:51:27;;;;;;;15.53;2.00;;;;;;;28.70;23.12;100447.27;1723119;82;20992;-42
2022/08/26 10:54:27;;;;;;;15.70;1.95;;;;;;;28.60;23.15;100453.97;1716799;82;22107;-42
2022/08/26 10:57:15;;;;;;;19.35;3.00;;;;;;;28.53;23.09;100451.04;1703151;83;20962;-42
2022/08/26 10:59:56;;;;;;;17.87;2.15;;;;;;;28.57;23.91;100444.44;1703187;83;21607;-42
2022/08/26 11:02:34;;;;;;;17.50;2.10;;;;;;;28.67;24.33;100442.59;1715803;81;20948;-41
2022/08/26 11:05:21;;;;;;;19.42;2.90;;;;;;;28.92;23.03;100431.41;1706447;82;21043;-43
2022/08/26 11:08:14;;;;;;;12.63;2.47;;;;;;;29.17;23.16;100435.16;1740467;80;21025;-42
2022/08/26 11:10:58;;;;;;;13.78;2.52;;;;;;;29.45;22.87;100424.49;1762550;80;20944;-42
2022/08/26 11:14:01;;;;;;;16.12;2.12;;;;;;;29.68;23.48;100433.32;1772857;80;20971;-42
2022/08/26 11:16:39;;;;;;;20.62;2.02;;;;;;;29.94;25.35;100429.87;1744628;80;20924;-43
2022/08/26 11:19:08;;;;;;;9.45;2.20;;;;;;;30.37;24.41;100426.81;1744853;80;21472;-42
2022/08/26 11:21:47;;;;;;;15.43;2.95;;;;;;;30.78;22.97;100427.51;1745325;80;21217;-42
2022/08/26 11:24:49;;;;;;;15.93;2.40;;;;;;;31.16;24.66;100424.44;1758165;80;20881;-42
2022/08/26 11:27:40;;;;;;;13.75;2.08;;;;;;;31.54;23.73;100432.87;1756342;80;21395;-41
2022/08/26 11:30:16;;;;;;;21.50;2.62;;;;;;;31.91;24.13;100427.18;1722263;80;20949;-43
2022/08/26 11:32:50;;;;;;;16.12;2.10;;;;;;;32.16;23.19;100425.31;1740211;80;20975;-42
2022/08/26 11:35:23;;;;;;;14.00;2.65;;;;;;;32.23;25.08;100420.11;1749503;80;21209;-42
2022/08/26 11:37:56;;;;;;;25.75;1.98;;;;;;;32.13;23.05;100435.51;1765684;80;21555;-43
2022/08/26 11:40:37;;;;;;;21.15;2.58;;;;;;;31.82;22.81;100430.36;1760685;80;20987;-42
2022/08/26 11:43:17;;;;;;;16.82;3.08;;;;;;;31.53;22.37;100421.84;1744511;80;20911;-42
2022/08/26 11:45:47;;;;;;;16.52;2.40;;;;;;;31.49;23.81;100425.00;1746550;80;20986;-44
2022/08/26 11:48:33;;;;;;;15.50;2.10;;;;;;;31.51;25.19;100436.37;1745398;80;21370;-43
2022/08/26 11:51:07;;;;;;;18.32;2.20;;;;;;;31.71;26.57;100428.02;1757924;80;20975;-42